createdAt,value
2023-03-29T00:01:35.139Z,2.15
2023-03-29T00:04:38.995Z,1.90
2023-03-29T00:07:41.738Z,2.00
2023-03-29T00:10:44.235Z,1.98
2023-03-29T00:13:46.393Z,2.05
2023-03-29T00:16:48.949Z,1.67
2023-03-29T00:19:51.322Z,1.77
2023-03-29T00:22:53.798Z,1.90
2023-03-29T00:25:56.655Z,1.90
2023-03-29T00:28:59.169Z,2.03
2023-03-29T00:32:01.401Z,2.10
2023-03-29T00:35:06.141Z,2.22
2023-03-29T00:38:08.579Z,2.83
2023-03-29T00:41:11.748Z,2.33
2023-03-29T00:44:54.976Z,2.45
2023-03-29T00:48:07.571Z,2.12
2023-03-29T00:51:14.285Z,2.08
2023-03-29T00:54:18.695Z,2.05
2023-03-29T00:57:25.254Z,2.03
2023-03-29T01:00:34.884Z,2.37
2023-03-29T01:03:46.376Z,1.98
2023-03-29T01:07:06.592Z,2.30
2023-03-29T01:10:14.522Z,2.05
2023-03-29T01:13:26.234Z,2.05
2023-03-29T01:16:30.368Z,2.47
2023-03-29T01:19:42.248Z,2.20
2023-03-29T01:23:16.883Z,2.30
2023-03-29T01:26:27.072Z,2.10
2023-03-29T01:29:40.080Z,2.15
2023-03-29T01:32:50.497Z,2.10
2023-03-29T01:36:00.056Z,2.30
2023-03-29T01:39:06.163Z,2.40
2023-03-29T01:42:22.620Z,2.25
2023-03-29T01:45:36.604Z,2.35
2023-03-29T01:48:51.559Z,2.30
2023-03-29T01:52:17.066Z,1.90
2023-03-29T01:55:32.928Z,2.20
2023-03-29T01:58:40.067Z,2.08
2023-03-29T02:01:49.486Z,2.50
2023-03-29T02:04:54.155Z,2.53
2023-03-29T02:07:58.316Z,2.45
2023-03-29T02:11:01.547Z,2.75
2023-03-29T02:14:04.260Z,2.40
2023-03-29T02:17:26.517Z,2.20
2023-03-29T02:20:38.745Z,2.70
2023-03-29T02:23:45.624Z,2.55
2023-03-29T02:26:48.986Z,2.60
2023-03-29T02:29:51.228Z,2.75
2023-03-29T02:33:00.272Z,2.55
2023-03-29T02:36:10.241Z,2.53
2023-03-29T02:39:15.648Z,2.70
2023-03-29T02:42:20.324Z,2.92
2023-03-29T02:45:25.099Z,3.00
2023-03-29T02:48:29.359Z,2.70
2023-03-29T02:51:34.125Z,2.40
2023-03-29T02:54:43.373Z,2.75
2023-03-29T02:57:45.932Z,3.12
2023-03-29T03:00:49.039Z,3.20
2023-03-29T03:03:51.887Z,3.30
2023-03-29T03:06:54.236Z,3.80
2023-03-29T03:09:57.674Z,3.55
2023-03-29T03:12:59.874Z,3.70
2023-03-29T03:16:04.868Z,3.60
2023-03-29T03:19:07.211Z,3.75
2023-03-29T03:22:10.010Z,4.22
2023-03-29T03:25:12.934Z,4.22
2023-03-29T03:28:15.517Z,4.25
2023-03-29T03:31:19.585Z,4.15
2023-03-29T03:34:26.292Z,3.78
2023-03-29T03:37:28.867Z,4.10
2023-03-29T03:40:32.343Z,4.10
2023-03-29T03:43:34.861Z,4.07
2023-03-29T03:46:38.204Z,4.10
2023-03-29T03:49:40.968Z,4.35
2023-03-29T03:52:43.606Z,4.10
2023-03-29T03:55:53.404Z,4.50
2023-03-29T03:58:56.926Z,5.43
2023-03-29T04:01:59.917Z,6.60
2023-03-29T04:05:03.441Z,6.93
2023-03-29T04:08:06.691Z,6.68
2023-03-29T04:11:10.765Z,6.72
2023-03-29T04:14:13.100Z,7.62
2023-03-29T04:17:17.377Z,8.85
2023-03-29T04:20:20.267Z,9.43
2023-03-29T04:23:23.006Z,8.85
2023-03-29T04:26:25.827Z,8.38
2023-03-29T04:29:30.452Z,9.98
2023-03-29T04:32:33.652Z,8.60
2023-03-29T04:35:36.543Z,9.07
2023-03-29T04:38:43.362Z,8.95
2023-03-29T04:41:50.443Z,10.23
2023-03-29T04:44:53.333Z,9.82
2023-03-29T04:48:01.706Z,9.25
2023-03-29T04:51:05.722Z,8.32
2023-03-29T04:54:09.014Z,7.20
2023-03-29T04:57:12.263Z,7.00
2023-03-29T05:00:16.633Z,6.68
2023-03-29T05:03:21.057Z,5.72
2023-03-29T05:06:23.982Z,5.75
2023-03-29T05:09:26.319Z,7.05
2023-03-29T05:12:28.871Z,7.40
2023-03-29T05:15:32.075Z,7.25
2023-03-29T05:18:34.719Z,6.72
2023-03-29T05:21:38.666Z,7.47
2023-03-29T05:24:42.409Z,6.72
2023-03-29T05:27:45.896Z,7.97
2023-03-29T05:31:00.694Z,6.50
2023-03-29T05:34:05.269Z,8.02
2023-03-29T05:37:09.081Z,7.55
2023-03-29T05:40:13.560Z,7.65
2023-03-29T05:43:16.833Z,5.97
2023-03-29T05:46:19.463Z,6.18
2023-03-29T05:49:23.194Z,5.80
2023-03-29T05:52:26.408Z,6.03
2023-03-29T05:55:29.519Z,5.62
2023-03-29T05:58:33.994Z,4.90
2023-03-29T06:01:36.832Z,4.28
2023-03-29T06:04:39.994Z,4.70
2023-03-29T06:07:45.146Z,4.12
2023-03-29T06:10:49.078Z,4.20
2023-03-29T06:13:52.989Z,6.03
2023-03-29T06:16:56.531Z,6.10
2023-03-29T06:19:59.582Z,5.40
2023-03-29T06:23:03.483Z,4.57
2023-03-29T06:26:06.165Z,4.32
2023-03-29T06:29:10.698Z,8.23
2023-03-29T06:32:15.441Z,5.55
2023-03-29T06:35:19.548Z,5.70
2023-03-29T06:38:22.121Z,25.25
2023-03-29T06:41:26.425Z,6.37
2023-03-29T06:44:29.552Z,5.62
2023-03-29T06:47:32.884Z,5.85
2023-03-29T06:50:36.183Z,6.00
2023-03-29T06:53:38.872Z,5.55
2023-03-29T06:56:41.229Z,5.12
2023-03-29T06:59:44.196Z,5.45
2023-03-29T07:02:47.334Z,5.40
2023-03-29T07:05:52.112Z,4.78
2023-03-29T07:09:00.794Z,4.85
2023-03-29T07:12:05.041Z,4.87
2023-03-29T07:15:08.750Z,4.90
2023-03-29T07:18:19.022Z,4.20
2023-03-29T07:21:21.333Z,5.20
2023-03-29T07:24:23.878Z,5.28
2023-03-29T07:27:26.963Z,4.62
2023-03-29T07:30:32.153Z,4.62
2023-03-29T07:33:39.797Z,4.90
2023-03-29T07:36:45.185Z,4.68
2023-03-29T07:39:47.575Z,4.03
2023-03-29T07:42:53.982Z,4.00
2023-03-29T07:46:01.660Z,3.70
2023-03-29T07:49:04.666Z,3.53
2023-03-29T07:52:07.008Z,3.80
2023-03-29T07:55:11.571Z,3.30
2023-03-29T07:58:16.730Z,3.47
2023-03-29T08:01:19.997Z,3.65
2023-03-29T08:04:27.115Z,3.67
2023-03-29T08:11:28.960Z,3.17
2023-03-29T08:14:32.054Z,3.00
2023-03-29T08:17:35.254Z,2.78
2023-03-29T08:20:37.936Z,3.17
2023-03-29T08:23:40.195Z,2.20
2023-03-29T08:26:43.545Z,1.83
2023-03-29T08:29:46.621Z,2.33
2023-03-29T08:32:52.188Z,2.20
2023-03-29T08:35:56.446Z,2.50
2023-03-29T08:38:59.606Z,1.83
2023-03-29T08:42:50.302Z,2.28
2023-03-29T08:46:00.033Z,2.20
2023-03-29T08:49:08.514Z,2.50
2023-03-29T08:52:28.275Z,2.25
2023-03-29T08:55:38.244Z,1.98
2023-03-29T08:58:46.605Z,2.12
2023-03-29T09:01:53.094Z,1.92
2023-03-29T09:05:01.172Z,1.92
2023-03-29T09:08:04.101Z,1.80
2023-03-29T09:11:26.104Z,1.98
2023-03-29T09:14:50.064Z,1.80
2023-03-29T09:18:21.899Z,1.92
2023-03-29T09:21:50.603Z,1.87
2023-03-29T09:25:07.191Z,2.05
2023-03-29T09:28:14.358Z,2.25
2023-03-29T09:31:44.848Z,2.22
2023-03-29T09:35:00.912Z,2.10
2023-03-29T09:38:09.370Z,2.20
2023-03-29T09:41:24.650Z,2.10
2023-03-29T09:44:37.299Z,2.37
2023-03-29T09:47:45.961Z,2.15
2023-03-29T09:50:51.476Z,3.15
2023-03-29T09:53:56.589Z,2.10
2023-03-29T09:57:00.247Z,2.20
2023-03-29T10:00:06.105Z,2.45
2023-03-29T10:03:19.603Z,2.30
2023-03-29T10:06:24.453Z,2.10
2023-03-29T10:09:29.991Z,1.98
2023-03-29T10:12:33.564Z,1.83
2023-03-29T10:15:36.036Z,1.70
2023-03-29T10:18:40.684Z,1.90
2023-03-29T10:21:42.959Z,1.98
2023-03-29T10:24:53.983Z,2.08
2023-03-29T10:28:13.419Z,2.55
2023-03-29T10:31:22.235Z,2.22
2023-03-29T10:34:28.095Z,2.12
2023-03-29T10:37:31.569Z,1.83
2023-03-29T10:40:35.590Z,2.25
2023-03-29T10:43:43.506Z,2.33
2023-03-29T10:46:46.466Z,2.62
2023-03-29T10:49:56.373Z,2.50
2023-03-29T10:52:59.405Z,2.42
2023-03-29T10:56:23.540Z,2.53
2023-03-29T10:59:47.584Z,2.33
2023-03-29T11:03:41.362Z,2.35
2023-03-29T11:06:52.487Z,2.37
2023-03-29T11:10:28.425Z,2.50
2023-03-29T11:13:40.999Z,2.30
2023-03-29T11:16:50.982Z,2.70
2023-03-29T11:20:04.909Z,2.47
2023-03-29T11:23:32.313Z,2.80
2023-03-29T11:26:57.918Z,2.40
2023-03-29T11:30:22.012Z,2.37
2023-03-29T11:33:52.000Z,2.40
2023-03-29T11:37:13.622Z,2.10
2023-03-29T11:40:37.239Z,2.30
2023-03-29T11:43:51.329Z,2.25
2023-03-29T11:47:18.661Z,2.45
2023-03-29T11:50:25.744Z,2.30
2023-03-29T11:53:37.642Z,2.20
2023-03-29T11:56:47.406Z,2.70
2023-03-29T11:59:49.703Z,2.67
2023-03-29T12:03:02.836Z,2.65
2023-03-29T12:06:37.819Z,2.90
2023-03-29T12:09:47.737Z,2.83
2023-03-29T12:13:07.660Z,2.60
2023-03-29T12:16:35.119Z,2.40
2023-03-29T12:19:45.346Z,2.67
2023-03-29T12:22:49.162Z,2.78
2023-03-29T12:26:11.913Z,2.83
2023-03-29T12:29:29.593Z,2.90
2023-03-29T12:32:50.598Z,2.70
2023-03-29T12:36:28.492Z,2.85
2023-03-29T12:39:33.301Z,2.78
2023-03-29T12:42:52.484Z,2.80
2023-03-29T12:46:01.997Z,2.80
2023-03-29T12:49:13.039Z,2.85
2023-03-29T12:52:31.397Z,2.92
2023-03-29T12:55:42.940Z,2.60
2023-03-29T12:58:45.405Z,3.53
2023-03-29T13:02:13.975Z,3.12
2023-03-29T13:05:36.798Z,3.53
2023-03-29T13:08:42.384Z,3.30
2023-03-29T13:11:45.646Z,3.28
2023-03-29T13:14:54.475Z,3.17
2023-03-29T13:18:26.636Z,2.50
2023-03-29T13:21:31.455Z,3.12
2023-03-29T13:25:15.066Z,3.00
2023-03-29T13:28:39.264Z,3.20
2023-03-29T13:32:26.981Z,3.65
2023-03-29T13:35:55.299Z,3.35
2023-03-29T13:39:05.435Z,2.90
2023-03-29T13:42:39.983Z,2.85
2023-03-29T13:45:42.492Z,3.40
2023-03-29T13:49:14.372Z,3.58
2023-03-29T13:52:22.633Z,3.20
2023-03-29T13:55:31.572Z,3.03
2023-03-29T13:58:48.224Z,4.22
2023-03-29T14:01:57.225Z,3.10
2023-03-29T14:05:04.328Z,3.40
2023-03-29T14:08:25.403Z,3.60
2023-03-29T14:11:30.035Z,3.15
2023-03-29T14:14:32.920Z,3.83
2023-03-29T14:17:36.956Z,3.28
2023-03-29T14:20:44.439Z,3.60
2023-03-29T14:23:54.053Z,3.80
2023-03-29T14:26:56.539Z,3.62
2023-03-29T14:29:59.032Z,3.47
2023-03-29T14:33:05.060Z,3.47
2023-03-29T14:36:15.925Z,4.00
2023-03-29T14:39:21.444Z,3.50
2023-03-29T14:42:28.763Z,3.70
2023-03-29T14:45:32.160Z,3.75
2023-03-29T14:48:35.695Z,3.87
2023-03-29T14:51:40.499Z,4.40
2023-03-29T14:54:47.004Z,4.12
2023-03-29T14:57:51.426Z,3.83
2023-03-29T15:00:54.934Z,3.70
2023-03-29T15:04:09.036Z,3.28
2023-03-29T15:07:11.495Z,3.20
2023-03-29T15:10:19.268Z,3.42
2023-03-29T15:13:24.655Z,3.30
2023-03-29T15:16:27.950Z,3.60
2023-03-29T15:19:31.594Z,3.25
2023-03-29T15:22:34.441Z,3.45
2023-03-29T15:25:45.812Z,3.25
2023-03-29T15:31:56.902Z,3.90
2023-03-29T15:35:01.398Z,3.75
2023-03-29T15:38:06.140Z,2.92
2023-03-29T15:41:08.970Z,3.20
2023-03-29T15:44:12.478Z,3.67
2023-03-29T15:47:14.974Z,3.70
2023-03-29T15:50:17.465Z,3.28
2023-03-29T15:53:23.642Z,2.95
2023-03-29T15:56:26.690Z,3.40
2023-03-29T15:59:30.923Z,3.22
2023-03-29T16:02:34.125Z,3.42
2023-03-29T16:05:36.582Z,3.70
2023-03-29T16:08:38.985Z,3.85
2023-03-29T16:11:42.934Z,3.92
2023-03-29T16:14:45.103Z,4.28
2023-03-29T16:17:47.603Z,4.05
2023-03-29T16:20:49.751Z,3.53
2023-03-29T16:23:52.156Z,3.58
2023-03-29T16:26:56.480Z,3.33
2023-03-29T16:29:59.057Z,3.90
2023-03-29T16:33:06.117Z,3.62
2023-03-29T16:36:09.961Z,3.83
2023-03-29T16:39:15.198Z,4.03
2023-03-29T16:42:17.727Z,3.90
2023-03-29T16:45:20.375Z,3.60
2023-03-29T16:48:23.749Z,4.00
2023-03-29T16:51:26.187Z,3.85
2023-03-29T16:54:29.631Z,3.65
2023-03-29T16:57:31.825Z,6.00
2023-03-29T17:00:34.743Z,5.75
2023-03-29T17:03:37.660Z,4.57
2023-03-29T17:06:40.924Z,4.35
2023-03-29T17:09:43.154Z,3.95
2023-03-29T17:12:45.849Z,3.53
2023-03-29T17:15:52.089Z,3.03
2023-03-29T17:18:54.584Z,2.90
2023-03-29T17:21:56.878Z,2.58
2023-03-29T17:24:59.400Z,2.20
2023-03-29T17:28:01.640Z,2.55
2023-03-29T17:31:07.481Z,2.42
2023-03-29T17:34:09.812Z,2.70
2023-03-29T17:37:12.848Z,2.15
2023-03-29T17:40:14.979Z,2.40
2023-03-29T17:43:17.509Z,2.75
2023-03-29T17:46:22.801Z,2.90
2023-03-29T17:49:25.479Z,2.80
2023-03-29T17:52:27.721Z,2.55
2023-03-29T17:55:30.178Z,2.78
2023-03-29T17:58:32.431Z,2.65
2023-03-29T18:01:36.402Z,2.67
2023-03-29T18:04:41.007Z,3.25
2023-03-29T18:07:43.272Z,3.47
2023-03-29T18:10:45.905Z,4.20
2023-03-29T18:13:52.402Z,4.50
2023-03-29T18:16:55.752Z,4.70
2023-03-29T18:19:57.950Z,5.35
2023-03-29T18:23:00.378Z,4.40
2023-03-29T18:26:04.633Z,4.00
2023-03-29T18:29:09.736Z,4.37
2023-03-29T18:32:12.481Z,4.30
2023-03-29T18:35:15.083Z,3.65
2023-03-29T18:38:19.144Z,3.95
2023-03-29T18:41:23.783Z,3.65
2023-03-29T18:44:27.257Z,3.35
2023-03-29T18:47:29.834Z,3.15
2023-03-29T18:50:32.445Z,3.53
2023-03-29T18:53:36.309Z,3.75
2023-03-29T18:56:38.674Z,4.40
2023-03-29T18:59:41.215Z,4.50
2023-03-29T19:02:43.536Z,4.82
2023-03-29T19:05:46.293Z,4.53
2023-03-29T19:08:48.470Z,5.12
2023-03-29T19:11:51.068Z,5.20
2023-03-29T19:14:53.278Z,5.78
2023-03-29T19:17:55.868Z,5.45
2023-03-29T19:20:58.406Z,4.97
2023-03-29T19:24:03.943Z,5.20
2023-03-29T19:27:06.559Z,5.80
2023-03-29T19:30:09.779Z,4.68
2023-03-29T19:33:12.344Z,5.12
2023-03-29T19:36:14.832Z,5.53
2023-03-29T19:39:17.406Z,5.00
2023-03-29T19:42:20.181Z,5.10
2023-03-29T19:45:23.390Z,4.62
2023-03-29T19:48:26.063Z,4.60
2023-03-29T19:51:28.366Z,4.62
2023-03-29T19:54:30.972Z,4.25
2023-03-29T19:57:34.201Z,4.32
2023-03-29T20:00:38.678Z,4.53
2023-03-29T20:03:43.528Z,4.60
2023-03-29T20:06:46.309Z,4.22
2023-03-29T20:09:48.778Z,4.05
2023-03-29T20:12:51.002Z,4.00
2023-03-29T20:15:54.019Z,3.80
2023-03-29T20:18:56.244Z,4.50
2023-03-29T20:22:00.605Z,3.92
2023-03-29T20:25:02.768Z,3.92
2023-03-29T20:28:06.558Z,4.12
2023-03-29T20:31:10.991Z,4.30
2023-03-29T20:34:13.493Z,4.95
2023-03-29T20:37:15.619Z,4.70
2023-03-29T20:40:18.005Z,5.07
2023-03-29T20:43:20.296Z,6.00
2023-03-29T20:46:23.854Z,6.40
2023-03-29T20:49:26.645Z,7.25
2023-03-29T20:52:29.134Z,7.07
2023-03-29T20:55:33.313Z,6.80
2023-03-29T20:58:35.728Z,6.62
2023-03-29T21:01:40.753Z,6.93
2023-03-29T21:04:44.088Z,7.97
2023-03-29T21:07:47.892Z,8.77
2023-03-29T21:10:51.640Z,8.50
2023-03-29T21:13:53.974Z,8.13
2023-03-29T21:16:57.231Z,7.68
2023-03-29T21:19:59.472Z,8.88
2023-03-29T21:23:01.868Z,9.25
2023-03-29T21:26:06.742Z,8.57
2023-03-29T21:29:09.468Z,9.43
2023-03-29T21:32:11.677Z,8.18
2023-03-29T21:35:14.113Z,9.25
2023-03-29T21:38:17.133Z,8.98
2023-03-29T21:41:20.250Z,8.90
2023-03-29T21:44:35.825Z,8.85
2023-03-29T21:47:38.306Z,8.80
2023-03-29T21:50:40.555Z,9.38
2023-03-29T21:53:43.071Z,9.07
2023-03-29T21:56:47.700Z,8.93
2023-03-29T21:59:50.208Z,9.07
2023-03-29T22:02:52.465Z,8.55
2023-03-29T22:05:56.899Z,9.07
2023-03-29T22:09:00.664Z,9.57
2023-03-29T22:12:03.871Z,9.27
2023-03-29T22:15:07.809Z,9.00
2023-03-29T22:18:10.476Z,9.27
2023-03-29T22:21:19.704Z,8.85
2023-03-29T22:24:22.236Z,8.57
2023-03-29T22:27:24.515Z,7.97
2023-03-29T22:30:27.259Z,8.23
2023-03-29T22:33:29.531Z,7.55
2023-03-29T22:36:32.142Z,8.45
2023-03-29T22:39:36.043Z,8.43
2023-03-29T22:42:38.876Z,12.43
2023-03-29T22:45:41.278Z,9.77
2023-03-29T22:48:43.700Z,10.00
2023-03-29T22:51:46.202Z,9.73
2023-03-29T22:54:48.719Z,9.52
2023-03-29T22:57:50.918Z,9.23
2023-03-29T23:00:53.365Z,9.63
2023-03-29T23:03:55.708Z,9.10
2023-03-29T23:06:58.564Z,8.85
2023-03-29T23:10:00.850Z,9.18
2023-03-29T23:13:08.613Z,10.65
2023-03-29T23:16:11.020Z,9.45
2023-03-29T23:19:13.549Z,10.35
2023-03-29T23:22:15.910Z,10.05
2023-03-29T23:25:18.412Z,10.07
2023-03-29T23:28:24.510Z,10.07
2023-03-29T23:31:27.047Z,9.70
2023-03-29T23:34:29.436Z,9.82
2023-03-29T23:37:32.078Z,9.65
2023-03-29T23:40:34.222Z,9.75
2023-03-29T23:43:40.535Z,11.23
2023-03-29T23:46:43.017Z,10.90
2023-03-29T23:49:45.600Z,9.43
2023-03-29T23:52:49.345Z,9.60
2023-03-29T23:55:52.010Z,9.25
2023-03-29T23:58:54.492Z,10.15
